Time;durP1;ratioP1;P1;durP2;ratioP2;P2;SDS_P1;SDS_P2;PMS_P1;PMS_P2;Temp;Humidity;BMP_temperature;BMP_pressure;BME280_temperature;BME280_humidity;BME280_pressure;Samples;Min_cycle;Max_cycle;Signal;HPM_P1;HPM_P2
2024/01/14 00:02:07;;;;;;;28.42;12.63;;;;;;;3.81;75.17;100357.84;5052946;28;20045;-54
2024/01/14 00:04:34;;;;;;;26.20;13.00;;;;;;;3.83;75.41;100355.34;5052815;28;20056;-43
2024/01/14 00:07:02;;;;;;;25.90;11.30;;;;;;;3.83;75.07;100350.22;5057687;28;20052;-50
2024/01/14 00:09:29;;;;;;;23.67;12.00;;;;;;;3.85;75.27;100348.56;5056858;28;20052;-44
2024/01/14 00:11:56;;;;;;;20.63;10.85;;;;;;;3.84;75.47;100347.69;5056254;28;20048;-52
2024/01/14 00:14:22;;;;;;;27.80;12.93;;;;;;;3.85;75.40;100349.44;5054249;28;20747;-49
2024/01/14 00:16:49;;;;;;;23.90;10.85;;;;;;;3.83;75.20;100340.84;5054208;28;20044;-46
2024/01/14 00:19:16;;;;;;;24.83;11.40;;;;;;;3.86;75.69;100345.19;5043287;28;20515;-46
2024/01/14 00:21:42;;;;;;;25.85;12.10;;;;;;;3.86;75.54;100340.06;5043790;28;20080;-53
2024/01/14 00:24:09;;;;;;;26.05;12.65;;;;;;;3.86;75.38;100330.66;5046782;28;20049;-51
2024/01/14 00:26:37;;;;;;;28.05;11.80;;;;;;;3.88;75.82;100333.25;5052208;28;20056;-46
2024/01/14 00:29:04;;;;;;;21.88;11.40;;;;;;;3.89;75.78;100322.22;5060633;28;20049;-47
2024/01/14 00:31:31;;;;;;;23.30;10.80;;;;;;;3.90;75.97;100320.50;5063805;28;20057;-45
2024/01/14 00:33:59;;;;;;;27.95;12.05;;;;;;;3.92;75.94;100316.31;5056018;28;20076;-49
2024/01/14 00:36:26;;;;;;;27.35;12.60;;;;;;;3.93;75.69;100310.34;5060507;28;20046;-52
2024/01/14 00:38:53;;;;;;;25.92;12.13;;;;;;;3.95;75.65;100303.59;5056606;28;20045;-47
2024/01/14 00:41:21;;;;;;;29.27;12.13;;;;;;;3.96;75.87;100306.16;5058424;28;20521;-51
2024/01/14 00:43:47;;;;;;;26.40;11.40;;;;;;;3.98;75.84;100313.91;5064843;28;20044;-46
2024/01/14 00:46:14;;;;;;;27.25;12.25;;;;;;;3.98;76.15;100301.97;5064242;28;20052;-49
2024/01/14 00:48:41;;;;;;;25.80;11.35;;;;;;;4.01;75.75;100298.63;5065814;28;20040;-46
2024/01/14 00:51:08;;;;;;;30.98;11.98;;;;;;;4.01;76.07;100298.63;5062537;28;20132;-44
2024/01/14 00:53:34;;;;;;;21.00;10.07;;;;;;;4.02;75.78;100305.47;5061002;28;20773;-47
2024/01/14 00:56:01;;;;;;;22.63;9.88;;;;;;;4.03;75.91;100296.97;5059068;28;20358;-49
2024/01/14 00:58:28;;;;;;;20.05;10.20;;;;;;;4.04;75.55;100293.56;5062113;28;20645;-42
2024/01/14 01:00:54;;;;;;;13.70;8.82;;;;;;;4.04;75.98;100288.44;5056731;28;20053;-43
2024/01/14 01:03:21;;;;;;;15.40;8.52;;;;;;;4.04;76.15;100288.44;5060810;28;20045;-46
2024/01/14 01:05:48;;;;;;;16.27;8.32;;;;;;;4.05;75.70;100289.34;5062357;28;20045;-52
2024/01/14 01:08:15;;;;;;;17.58;8.25;;;;;;;4.06;75.73;100291.91;5067192;28;20072;-54
2024/01/14 01:10:42;;;;;;;18.38;7.50;;;;;;;4.06;75.65;100286.78;5059182;28;20051;-48
2024/01/14 01:13:08;;;;;;;25.77;11.52;;;;;;;4.08;76.05;100285.16;5062130;28;20524;-43
2024/01/14 01:15:35;;;;;;;14.68;6.20;;;;;;;4.11;75.75;100284.34;5069085;28;20091;-47
2024/01/14 01:18:02;;;;;;;10.25;5.70;;;;;;;4.11;76.37;100285.22;5067263;28;20053;-50
2024/01/14 01:20:29;;;;;;;15.90;7.43;;;;;;;4.13;76.24;100281.84;5061336;28;20106;-55
2024/01/14 01:22:56;;;;;;;12.05;6.63;;;;;;;4.14;76.68;100278.44;5058666;28;20064;-41
2024/01/14 01:25:22;;;;;;;13.23;6.03;;;;;;;4.16;76.43;100277.69;5062516;28;20105;-51
2024/01/14 01:27:49;;;;;;;17.25;7.43;;;;;;;4.18;76.57;100277.69;5067219;28;20048;-47
2024/01/14 01:30:16;;;;;;;19.83;9.20;;;;;;;4.20;76.17;100276.06;5064389;28;20044;-53
2024/01/14 01:32:43;;;;;;;11.93;6.47;;;;;;;4.21;76.20;100270.09;5065370;28;20045;-51
2024/01/14 01:35:10;;;;;;;11.95;5.25;;;;;;;4.22;76.06;100276.97;5059909;28;20470;-43
2024/01/14 01:37:37;;;;;;;13.05;6.68;;;;;;;4.23;75.79;100265.88;5063988;28;20048;-54
2024/01/14 01:40:04;;;;;;;19.98;8.55;;;;;;;4.24;75.94;100270.19;5061866;28;20052;-47
2024/01/14 01:42:34;;;;;;;16.77;7.47;;;;;;;4.25;76.23;100261.66;5066813;28;20055;-52
2024/01/14 01:45:01;;;;;;;20.13;8.25;;;;;;;4.27;75.97;100265.13;5067280;28;20512;-53
2024/01/14 01:47:28;;;;;;;18.25;7.78;;;;;;;4.27;75.83;100265.13;5062403;28;20505;-47
2024/01/14 01:49:55;;;;;;;15.23;7.95;;;;;;;4.27;76.33;100261.69;5060658;28;20060;-46
2024/01/14 01:52:23;;;;;;;19.80;7.60;;;;;;;4.26;76.61;100258.28;5066071;28;20056;-46
2024/01/14 01:54:51;;;;;;;19.73;8.80;;;;;;;4.27;76.24;100261.69;5059705;28;20099;-45
2024/01/14 01:57:19;;;;;;;17.48;8.73;;;;;;;4.27;76.14;100257.44;5060344;28;20048;-50
2024/01/14 01:59:46;;;;;;;16.60;8.98;;;;;;;4.27;76.53;100247.19;5065470;28;20044;-51
2024/01/14 02:02:14;;;;;;;15.65;6.63;;;;;;;4.27;76.33;100252.31;5060133;28;20073;-50
2024/01/14 02:04:40;;;;;;;18.13;7.90;;;;;;;4.27;76.52;100249.75;5063831;28;20053;-54
2024/01/14 02:07:08;;;;;;;15.55;7.05;;;;;;;4.26;76.16;100239.44;5067431;28;20079;-54
2024/01/14 02:09:35;;;;;;;19.50;7.10;;;;;;;4.25;75.77;100246.25;5062170;28;20562;-49
2024/01/14 02:12:02;;;;;;;15.80;7.63;;;;;;;4.23;75.96;100243.66;5063550;28;20044;-44
2024/01/14 02:14:29;;;;;;;15.48;7.22;;;;;;;4.24;76.20;100241.97;5064973;28;20072;-49
2024/01/14 02:16:55;;;;;;;12.88;5.90;;;;;;;4.24;76.65;100235.16;5065472;28;20116;-50
2024/01/14 02:19:23;;;;;;;11.23;6.22;;;;;;;4.24;76.68;100234.28;5067305;28;20055;-49
2024/01/14 02:21:57;;;;;;;14.30;7.00;;;;;;;4.25;75.92;100233.44;5058352;28;20394;-45
2024/01/14 02:24:30;;;;;;;11.45;5.50;;;;;;;4.24;76.01;100231.72;5065388;28;20045;-44
2024/01/14 02:26:57;;;;;;;10.65;5.35;;;;;;;4.25;76.05;100220.63;5058800;28;20052;-42
2024/01/14 02:29:27;;;;;;;10.80;5.50;;;;;;;4.26;76.04;100224.06;5061846;28;20040;-52
2024/01/14 02:31:55;;;;;;;12.30;5.45;;;;;;;4.27;76.42;100228.34;5059956;28;20417;-45
2024/01/14 02:34:22;;;;;;;11.95;6.50;;;;;;;4.27;75.95;100218.09;5064920;28;20044;-48
2024/01/14 02:36:50;;;;;;;11.02;6.68;;;;;;;4.28;75.86;100220.72;5054594;28;20048;-52
2024/01/14 02:39:17;;;;;;;11.98;5.68;;;;;;;4.27;75.97;100221.53;5063911;28;20511;-48
2024/01/14 02:41:44;;;;;;;10.88;5.82;;;;;;;4.26;76.20;100212.13;5059822;28;20101;-49
2024/01/14 02:44:11;;;;;;;9.55;5.13;;;;;;;4.25;76.55;100207.81;5052318;28;20040;-54
2024/01/14 02:46:38;;;;;;;10.05;5.13;;;;;;;4.26;76.21;100209.56;5061760;28;20060;-52
2024/01/14 02:49:05;;;;;;;11.30;5.57;;;;;;;4.26;76.09;100212.13;5058102;28;20071;-49
2024/01/14 02:51:32;;;;;;;9.95;5.75;;;;;;;4.27;76.39;100210.41;5055964;28;20565;-46
2024/01/14 02:54:01;;;;;;;9.93;4.30;;;;;;;4.24;75.70;100198.38;5055511;28;20053;-50
2024/01/14 02:56:29;;;;;;;6.30;4.20;;;;;;;4.23;75.97;100205.19;5064960;28;20067;-47
2024/01/14 02:58:57;;;;;;;10.98;4.72;;;;;;;4.22;75.95;100206.03;5063689;28;20057;-53
2024/01/14 03:01:23;;;;;;;11.30;4.03;;;;;;;4.22;75.54;100200.06;5055285;28;20056;-50
2024/01/14 03:03:50;;;;;;;7.75;4.63;;;;;;;4.20;75.58;100197.44;5064397;28;20086;-51
2024/01/14 03:06:17;;;;;;;10.32;5.35;;;;;;;4.20;76.14;100194.88;5066655;28;20063;-48
2024/01/14 03:08:45;;;;;;;13.93;5.07;;;;;;;4.19;75.98;100190.56;5062479;28;20048;-47
2024/01/14 03:11:11;;;;;;;12.93;6.72;;;;;;;4.19;75.45;100185.44;5068401;28;20048;-49
2024/01/14 03:13:38;;;;;;;9.85;6.07;;;;;;;4.20;75.24;100183.75;5067603;28;20052;-45
2024/01/14 03:16:05;;;;;;;10.20;5.22;;;;;;;4.18;75.86;100178.59;5058786;28;20040;-50
2024/01/14 03:18:32;;;;;;;7.22;4.32;;;;;;;4.17;76.02;100174.28;5064190;28;20070;-50
2024/01/14 03:20:59;;;;;;;10.65;5.55;;;;;;;4.18;75.31;100172.56;5062032;28;20131;-49
2024/01/14 03:23:27;;;;;;;9.13;5.00;;;;;;;4.17;75.42;100165.72;5052198;28;20040;-47
2024/01/14 03:25:54;;;;;;;9.52;4.28;;;;;;;4.16;75.99;100175.13;5061237;28;20048;-46
2024/01/14 03:28:21;;;;;;;7.03;3.38;;;;;;;4.14;75.06;100160.50;5064932;28;20050;-53
2024/01/14 03:30:49;;;;;;;13.45;4.75;;;;;;;4.15;75.75;100168.25;5054626;28;20064;-48
2024/01/14 03:33:16;;;;;;;10.35;4.72;;;;;;;4.14;75.48;100160.50;5065335;28;20671;-55
2024/01/14 03:35:43;;;;;;;7.20;3.80;;;;;;;4.13;75.27;100153.66;5064543;28;20044;-44
2024/01/14 03:38:09;;;;;;;4.50;2.95;;;;;;;4.08;74.98;100146.72;5065195;28;20063;-48
2024/01/14 03:40:37;;;;;;;10.07;4.68;;;;;;;4.11;75.35;100156.19;5064094;28;20052;-47
2024/01/14 03:43:04;;;;;;;8.68;3.75;;;;;;;4.11;74.82;100146.81;5060250;28;20049;-55
2024/01/14 03:45:31;;;;;;;5.35;4.13;;;;;;;4.11;74.58;100151.94;5056136;28;20055;-45
2024/01/14 03:47:58;;;;;;;8.43;4.05;;;;;;;4.11;75.25;100149.38;5060902;28;20056;-47
2024/01/14 03:50:25;;;;;;;5.32;2.78;;;;;;;4.13;74.98;100138.28;5066726;28;20435;-52
2024/01/14 03:52:51;;;;;;;10.73;4.10;;;;;;;4.13;74.72;100138.28;5058552;28;20076;-43
2024/01/14 03:55:18;;;;;;;8.50;4.15;;;;;;;4.13;74.85;100140.84;5065365;28;20052;-45
2024/01/14 03:57:45;;;;;;;7.45;4.15;;;;;;;4.13;75.17;100133.16;5062679;28;20067;-48
2024/01/14 04:00:13;;;;;;;6.38;2.92;;;;;;;4.10;75.08;100129.69;5059955;28;20059;-43
2024/01/14 04:02:39;;;;;;;5.13;3.35;;;;;;;4.10;75.05;100134.81;5058967;28;20045;-47
2024/01/14 04:05:09;;;;;;;6.13;4.00;;;;;;;4.08;74.25;100126.22;5060750;28;20040;-48
2024/01/14 04:07:36;;;;;;;4.60;3.38;;;;;;;4.10;74.77;100133.94;5063292;28;20041;-45
2024/01/14 04:10:02;;;;;;;6.78;3.38;;;;;;;4.08;73.97;100131.34;5062365;28;20052;-50
2024/01/14 04:12:29;;;;;;;3.72;2.65;;;;;;;4.06;74.16;100127.84;5062555;28;20051;-48
2024/01/14 04:14:56;;;;;;;7.65;4.18;;;;;;;4.06;73.80;100125.28;5060212;28;20106;-47
2024/01/14 04:17:22;;;;;;;5.55;3.33;;;;;;;4.08;73.71;100115.09;5063438;28;20124;-44
2024/01/14 04:19:49;;;;;;;7.88;3.80;;;;;;;4.09;73.85;100120.25;5059302;28;20053;-52
2024/01/14 04:22:16;;;;;;;6.43;3.53;;;;;;;4.09;73.97;100119.41;5059213;28;20064;-51
2024/01/14 04:24:44;;;;;;;7.70;4.10;;;;;;;4.08;73.69;100112.50;5062253;28;20055;-44
2024/01/14 04:27:11;;;;;;;5.82;3.85;;;;;;;4.07;73.84;100114.22;5060444;28;20044;-45
2024/01/14 04:29:38;;;;;;;7.88;4.22;;;;;;;4.04;73.79;100103.91;5062966;28;20454;-46
2024/01/14 04:32:05;;;;;;;7.55;3.85;;;;;;;4.04;73.83;100103.91;5062318;28;20052;-46
2024/01/14 04:34:33;;;;;;;6.82;3.88;;;;;;;4.05;73.85;100099.66;5069100;28;20044;-52
2024/01/14 04:37:00;;;;;;;5.47;3.20;;;;;;;4.02;74.05;100097.84;5062118;28;20151;-52
2024/01/14 04:39:27;;;;;;;6.47;3.83;;;;;;;3.99;73.64;100090.13;5063661;28;20785;-47
2024/01/14 04:41:54;;;;;;;6.72;3.47;;;;;;;4.01;74.01;100093.56;5061581;28;20523;-56
2024/01/14 04:44:21;;;;;;;6.57;4.00;;;;;;;4.03;74.04;100089.34;5057474;28;20124;-44
2024/01/14 04:46:47;;;;;;;5.60;3.80;;;;;;;4.01;73.98;100092.72;5059365;28;20057;-48
2024/01/14 04:49:14;;;;;;;6.30;3.90;;;;;;;4.00;74.18;100081.59;5057965;28;20053;-44
2024/01/14 04:51:42;;;;;;;9.43;4.90;;;;;;;4.01;74.08;100088.44;5066372;28;20474;-50
2024/01/14 04:54:09;;;;;;;5.40;3.67;;;;;;;4.00;73.78;100081.59;5056980;28;20045;-46
2024/01/14 04:56:36;;;;;;;6.32;3.33;;;;;;;4.00;73.97;100081.59;5064738;28;20072;-48
2024/01/14 04:59:03;;;;;;;7.97;4.05;;;;;;;4.01;74.55;100083.31;5064239;28;20465;-46
2024/01/14 05:01:30;;;;;;;6.65;3.63;;;;;;;4.01;74.41;100080.75;5064098;28;20052;-43
2024/01/14 05:03:58;;;;;;;5.15;3.10;;;;;;;4.01;73.98;100088.44;5067543;28;20048;-47
2024/01/14 05:06:25;;;;;;;4.10;3.15;;;;;;;4.00;73.92;100081.59;5059019;28;20044;-46
2024/01/14 05:08:51;;;;;;;8.73;3.55;;;;;;;4.00;73.78;100081.59;5062308;28;20067;-45
2024/01/14 05:11:20;;;;;;;6.50;3.38;;;;;;;4.00;73.97;100076.47;5057783;28;20068;-50
2024/01/14 05:13:48;;;;;;;5.97;3.17;;;;;;;4.01;73.58;100078.19;5069518;28;20053;-50
2024/01/14 05:16:14;;;;;;;8.63;3.83;;;;;;;4.01;73.70;100067.94;5064402;28;20048;-46
2024/01/14 05:18:41;;;;;;;2.15;2.03;;;;;;;3.92;72.69;100067.72;5064147;28;20055;-48
2024/01/14 05:21:14;;;;;;;7.75;3.72;;;;;;;3.98;73.37;100052.47;5063791;28;20080;-44
2024/01/14 05:23:40;;;;;;;5.28;3.10;;;;;;;3.99;73.50;100064.47;5059309;28;20040;-47
2024/01/14 05:26:08;;;;;;;5.68;3.22;;;;;;;3.99;73.33;100043.97;5057062;28;20052;-52
2024/01/14 05:28:34;;;;;;;8.00;4.05;;;;;;;3.98;73.74;100043.09;5066453;28;20052;-48
2024/01/14 05:31:01;;;;;;;8.98;2.92;;;;;;;3.96;73.67;100046.47;5063108;28;20056;-45
2024/01/14 05:33:29;;;;;;;3.85;2.88;;;;;;;3.92;72.74;100047.22;5063241;28;20048;-46
2024/01/14 05:35:56;;;;;;;5.72;1.63;;;;;;;3.86;73.33;100042.81;5053714;28;20701;-50
2024/01/14 05:38:23;;;;;;;4.78;2.83;;;;;;;3.82;72.97;100046.13;5064304;28;20420;-48
2024/01/14 05:40:50;;;;;;;5.13;3.13;;;;;;;3.79;72.48;100046.91;5060093;28;20489;-49
2024/01/14 05:43:18;;;;;;;2.78;2.47;;;;;;;3.77;73.11;100048.56;5064520;28;20052;-46
2024/01/14 05:45:45;;;;;;;3.38;3.08;;;;;;;3.76;72.96;100046.84;5065416;28;20045;-45
2024/01/14 05:48:13;;;;;;;3.60;2.78;;;;;;;3.75;73.28;100042.53;5058808;28;20049;-45
2024/01/14 05:50:41;;;;;;;3.08;2.70;;;;;;;3.75;72.99;100039.97;5058173;28;20135;-50
2024/01/14 05:53:07;;;;;;;5.28;3.10;;;;;;;3.76;73.00;100040.84;5063400;28;20324;-49
2024/01/14 05:55:34;;;;;;;3.85;2.17;;;;;;;3.72;73.08;100040.75;5065870;28;20043;-49
2024/01/14 05:58:01;;;;;;;3.45;2.67;;;;;;;3.71;73.03;100033.91;5059241;28;20044;-48
2024/01/14 06:00:28;;;;;;;4.18;2.58;;;;;;;3.72;73.15;100029.66;5064343;28;20048;-47
2024/01/14 06:02:55;;;;;;;6.95;3.20;;;;;;;3.69;72.90;100034.69;5058162;28;20481;-45
2024/01/14 06:05:22;;;;;;;3.78;2.25;;;;;;;3.65;72.65;100032.88;5059837;28;20423;-50
2024/01/14 06:07:50;;;;;;;2.70;2.33;;;;;;;3.62;72.72;100032.81;5064216;28;20052;-49
2024/01/14 06:10:17;;;;;;;3.72;2.45;;;;;;;3.57;73.13;100025.88;5061199;28;20045;-50
2024/01/14 06:12:44;;;;;;;3.28;2.38;;;;;;;3.52;72.73;100027.47;5063633;28;20052;-46
2024/01/14 06:15:11;;;;;;;4.97;2.47;;;;;;;3.48;72.99;100020.53;5065560;28;20099;-48
2024/01/14 06:17:38;;;;;;;5.35;2.72;;;;;;;3.42;73.12;100017.78;5063094;28;20129;-54
2024/01/14 06:20:06;;;;;;;7.47;2.90;;;;;;;3.34;72.79;100022.69;5062966;28;20080;-50
2024/01/14 06:22:33;;;;;;;3.97;2.15;;;;;;;3.26;73.18;100014.84;5064288;28;20057;-42
2024/01/14 06:25:02;;;;;;;5.72;2.47;;;;;;;3.19;72.91;100007.81;5063571;28;20409;-47
2024/01/14 06:27:29;;;;;;;2.63;1.88;;;;;;;3.12;72.65;100011.03;5060186;28;20049;-44
2024/01/14 06:29:55;;;;;;;4.80;2.65;;;;;;;3.04;72.70;100009.13;5058900;28;20139;-49
2024/01/14 06:32:25;;;;;;;3.53;2.28;;;;;;;3.00;72.58;100007.31;5061052;28;20048;-44
2024/01/14 06:34:52;;;;;;;2.55;2.30;;;;;;;2.93;72.92;100001.16;5063320;28;20075;-47
2024/01/14 06:37:18;;;;;;;3.05;2.05;;;;;;;2.88;72.93;100001.84;5065853;28;20056;-45
2024/01/14 06:39:46;;;;;;;4.40;1.88;;;;;;;2.82;73.16;99995.75;5057343;28;20049;-46
2024/01/14 06:42:14;;;;;;;7.03;1.25;;;;;;;2.76;72.67;99998.13;5058455;28;21641;-45
2024/01/14 06:44:41;;;;;;;1.92;1.80;;;;;;;2.73;73.28;99997.19;5057314;28;20041;-43
2024/01/14 06:47:08;;;;;;;2.92;2.38;;;;;;;2.67;73.05;99995.31;5058731;28;20052;-53
2024/01/14 06:49:34;;;;;;;2.20;2.00;;;;;;;2.63;73.63;100001.19;5051533;28;21371;-48
2024/01/14 06:52:03;;;;;;;2.08;1.98;;;;;;;2.57;73.75;99997.59;5061859;28;20053;-48
2024/01/14 06:54:29;;;;;;;2.25;2.05;;;;;;;2.53;73.34;99994.94;5056205;28;20070;-46
2024/01/14 06:56:56;;;;;;;2.05;0.88;;;;;;;2.49;73.24;99993.94;5059641;28;20491;-49
2024/01/14 06:59:23;;;;;;;4.03;1.80;;;;;;;2.45;73.94;99999.78;5060532;28;20574;-49
2024/01/14 07:01:51;;;;;;;4.82;1.95;;;;;;;2.40;73.04;99986.88;5056097;28;20048;-48
2024/01/14 07:04:18;;;;;;;2.20;2.00;;;;;;;2.38;73.52;99991.09;5056673;28;20053;-47
2024/01/14 07:06:45;;;;;;;6.82;2.22;;;;;;;2.34;73.60;99988.38;5060597;28;20055;-47
2024/01/14 07:09:12;;;;;;;4.97;1.88;;;;;;;2.30;73.44;99988.28;5056888;28;20071;-49
2024/01/14 07:11:39;;;;;;;3.38;2.10;;;;;;;2.27;72.80;99984.78;5053752;28;21809;-46
2024/01/14 07:14:06;;;;;;;2.08;1.98;;;;;;;2.22;73.78;99984.63;5059313;28;20052;-46
2024/01/14 07:16:35;;;;;;;1.67;1.52;;;;;;;2.17;73.11;99987.03;5057778;28;20145;-47
2024/01/14 07:19:02;;;;;;;2.83;2.25;;;;;;;2.16;73.81;99981.91;5059745;28;20049;-50
2024/01/14 07:21:31;;;;;;;1.67;1.58;;;;;;;2.12;74.38;99973.28;5064746;28;20143;-45
2024/01/14 07:23:58;;;;;;;1.73;1.55;;;;;;;2.09;73.45;99975.72;5059744;28;20262;-51
2024/01/14 07:26:25;;;;;;;5.32;2.67;;;;;;;2.07;73.33;99976.50;5067918;28;20041;-52
2024/01/14 07:28:52;;;;;;;2.42;1.90;;;;;;;2.05;74.07;99979.00;5060298;28;20044;-53
2024/01/14 07:31:21;;;;;;;2.78;2.58;;;;;;;2.02;73.99;99973.78;5058264;28;20075;-47
2024/01/14 07:33:50;;;;;;;3.25;3.03;;;;;;;2.00;73.73;99971.22;5059205;28;20174;-46
2024/01/14 07:36:19;;;;;;;2.72;2.53;;;;;;;1.96;73.45;99971.91;5056182;28;20650;-48
2024/01/14 07:38:46;;;;;;;9.45;2.83;;;;;;;1.95;73.27;99980.41;5055087;28;20057;-48
2024/01/14 07:41:13;;;;;;;2.45;2.25;;;;;;;1.92;73.92;99975.19;5055855;28;20053;-47
2024/01/14 07:43:42;;;;;;;3.00;2.05;;;;;;;1.90;74.31;99979.41;5059003;28;20131;-46
2024/01/14 07:46:09;;;;;;;2.70;2.50;;;;;;;1.87;73.70;99977.63;5057467;28;20041;-51
2024/01/14 07:48:37;;;;;;;3.13;0.60;;;;;;;1.84;74.63;99976.66;5056039;28;20621;-49
2024/01/14 07:51:04;;;;;;;3.08;1.75;;;;;;;1.82;74.20;99974.03;5056055;28;20105;-50
2024/01/14 07:53:31;;;;;;;2.40;2.20;;;;;;;1.80;73.29;99975.69;5057113;28;20185;-43
2024/01/14 07:55:58;;;;;;;2.25;1.77;;;;;;;1.77;74.67;99973.91;5058433;28;20041;-49
2024/01/14 07:58:25;;;;;;;3.08;2.17;;;;;;;1.75;74.86;99970.44;5059119;28;20074;-45
2024/01/14 08:00:52;;;;;;;2.47;2.28;;;;;;;1.72;74.27;99967.78;5058634;28;20060;-50
2024/01/14 08:03:29;;;;;;;3.58;3.13;;;;;;;1.72;73.86;99972.88;5056526;28;20045;-44
2024/01/14 08:05:57;;;;;;;6.85;2.20;;;;;;;1.70;73.94;99974.53;5057591;28;20053;-45
2024/01/14 08:08:24;;;;;;;3.08;2.45;;;;;;;1.69;73.86;99972.78;5058737;28;20056;-44
2024/01/14 08:10:51;;;;;;;6.40;2.63;;;;;;;1.67;74.17;99971.88;5062457;28;20040;-46
2024/01/14 08:13:19;;;;;;;3.75;2.55;;;;;;;1.66;73.95;99968.44;5061838;28;20060;-44
2024/01/14 08:15:46;;;;;;;2.83;2.47;;;;;;;1.67;75.05;99969.31;5059690;28;20053;-50
2024/01/14 08:18:27;;;;;;;5.60;3.55;;;;;;;1.67;73.79;99964.22;5059437;28;20079;-49
2024/01/14 08:20:54;;;;;;;28.52;7.28;;;;;;;1.67;74.18;99965.09;5065099;28;20559;-44
2024/01/14 08:23:21;;;;;;;46.42;10.90;;;;;;;1.71;74.74;99966.06;5058372;28;20460;-48
2024/01/14 08:25:49;;;;;;;58.42;15.25;;;;;;;1.76;74.31;99966.22;5065535;28;20097;-48
2024/01/14 08:28:16;;;;;;;55.50;14.85;;;;;;;1.82;74.89;99957.88;5061251;28;20378;-49
2024/01/14 08:30:43;;;;;;;24.38;9.35;;;;;;;1.89;74.15;99972.56;5053923;28;20184;-41
2024/01/14 08:33:09;;;;;;;17.67;7.90;;;;;;;1.97;74.96;99968.56;5054596;28;20059;-53
2024/01/14 08:35:38;;;;;;;12.27;4.18;;;;;;;2.08;75.10;99966.34;5055734;28;20072;-51
2024/01/14 08:38:04;;;;;;;7.85;3.20;;;;;;;2.23;74.28;99963.34;5060189;28;20141;-45
2024/01/14 08:40:31;;;;;;;5.70;3.95;;;;;;;2.43;74.72;99963.97;5062462;28;20048;-50
2024/01/14 08:42:58;;;;;;;5.47;2.85;;;;;;;2.57;74.63;99961.78;5045274;28;20045;-49
2024/01/14 08:45:24;;;;;;;4.57;2.30;;;;;;;2.77;74.60;99956.38;5061325;28;20048;-50
2024/01/14 08:47:52;;;;;;;8.82;2.78;;;;;;;2.98;74.03;99960.34;5063537;28;20113;-52
2024/01/14 08:50:20;;;;;;;6.53;3.17;;;;;;;3.32;73.53;99956.09;5058140;28;20048;-45
2024/01/14 08:52:46;;;;;;;4.63;3.10;;;;;;;3.66;73.67;99952.66;5058428;28;20055;-47
2024/01/14 08:55:13;;;;;;;4.45;2.60;;;;;;;4.10;73.16;99954.50;5060518;28;20044;-50
2024/01/14 08:57:40;;;;;;;3.53;2.67;;;;;;;4.68;73.64;99958.25;5067314;28;20048;-47
2024/01/14 09:00:09;;;;;;;5.15;2.85;;;;;;;5.22;73.27;99960.97;5039405;28;20045;-44
2024/01/14 09:02:36;;;;;;;4.53;3.20;;;;;;;5.70;72.44;99951.50;5070763;28;20044;-47
2024/01/14 09:05:03;;;;;;;3.13;2.80;;;;;;;6.25;72.91;99948.03;5056669;28;20041;-51
2024/01/14 09:07:30;;;;;;;6.70;3.63;;;;;;;6.75;72.17;99948.63;5062634;28;20045;-51
2024/01/14 09:09:57;;;;;;;7.78;3.97;;;;;;;7.26;71.42;99955.16;5060887;28;20059;-54
2024/01/14 09:12:24;;;;;;;5.00;3.40;;;;;;;7.54;70.78;99955.41;5053406;28;20091;-53
2024/01/14 09:14:51;;;;;;;5.82;2.97;;;;;;;7.33;70.11;99949.22;5053837;28;20053;-45
2024/01/14 09:17:20;;;;;;;4.95;2.63;;;;;;;6.94;69.17;99947.13;5056916;28;20037;-47
2024/01/14 09:19:46;;;;;;;3.90;2.83;;;;;;;6.58;68.42;99945.84;5057793;28;20060;-50
2024/01/14 09:22:14;;;;;;;5.88;3.60;;;;;;;6.23;68.39;99948.84;5053438;28;20048;-45
2024/01/14 09:24:45;;;;;;;4.22;2.60;;;;;;;5.94;68.34;99941.56;5065590;28;20051;-51
2024/01/14 09:27:13;;;;;;;4.25;2.95;;;;;;;5.65;68.67;99950.56;5058103;28;20048;-54
2024/01/14 09:29:41;;;;;;;6.72;2.55;;;;;;;5.43;69.29;99944.22;5057474;28;20056;-48
2024/01/14 09:32:08;;;;;;;3.05;2.38;;;;;;;5.24;69.58;99944.75;5065637;28;20504;-45
2024/01/14 09:34:35;;;;;;;5.05;2.63;;;;;;;5.08;70.22;99943.63;5058599;28;20840;-52
2024/01/14 09:37:02;;;;;;;4.35;2.97;;;;;;;4.97;70.91;99950.28;5055355;28;20562;-47
2024/01/14 09:39:29;;;;;;;5.82;2.78;;;;;;;4.85;70.86;99945.75;5059293;28;20496;-49
2024/01/14 09:42:14;;;;;;;3.28;2.35;;;;;;;4.73;70.99;99946.41;5058483;28;20501;-49
2024/01/14 09:44:41;;;;;;;3.67;2.45;;;;;;;4.63;71.53;99945.34;5057031;28;20102;-53
2024/01/14 09:47:09;;;;;;;4.28;2.50;;;;;;;4.53;71.74;99936.63;5055264;28;20053;-48
2024/01/14 09:49:36;;;;;;;6.15;2.67;;;;;;;4.45;71.77;99938.13;5052981;28;20057;-48
2024/01/14 09:52:04;;;;;;;2.80;2.55;;;;;;;4.40;71.77;99939.75;5057618;28;20059;-51
2024/01/14 09:54:32;;;;;;;4.68;2.55;;;;;;;4.29;72.69;99940.38;5053008;28;20065;-49
2024/01/14 09:57:08;;;;;;;4.15;2.03;;;;;;;4.26;71.90;99940.34;5056031;28;20140;-49
2024/01/14 09:59:37;;;;;;;3.22;2.95;;;;;;;4.23;72.02;99941.09;5061267;28;20084;-53
2024/01/14 10:02:05;;;;;;;2.78;2.58;;;;;;;4.20;72.81;99940.19;5045737;28;20057;-45
2024/01/14 10:04:32;;;;;;;5.68;2.45;;;;;;;4.13;72.58;99938.31;5058485;28;20389;-46
2024/01/14 10:06:59;;;;;;;3.78;2.45;;;;;;;4.18;72.55;99947.84;5055302;28;20059;-42
2024/01/14 10:09:26;;;;;;;2.85;1.05;;;;;;;4.22;72.89;99948.78;5052322;28;20522;-44
2024/01/14 10:11:53;;;;;;;3.53;2.58;;;;;;;4.24;72.62;99952.25;5052354;28;20048;-52
2024/01/14 10:14:25;;;;;;;3.03;1.83;;;;;;;4.24;72.80;99948.00;5053434;28;20113;-49
2024/01/14 10:16:54;;;;;;;2.28;2.08;;;;;;;4.25;73.37;99946.28;5066842;28;20049;-45
2024/01/14 10:19:22;;;;;;;2.90;2.22;;;;;;;4.25;73.36;99938.56;5058768;28;20531;-48
2024/01/14 10:21:53;;;;;;;1.90;1.20;;;;;;;4.27;72.77;99941.19;5053224;28;20468;-47
2024/01/14 10:24:40;;;;;;;4.75;3.53;;;;;;;4.26;73.05;99935.22;5052815;28;20409;-49
2024/01/14 10:27:07;;;;;;;6.38;2.50;;;;;;;4.27;73.13;99931.81;5055530;28;20049;-48
2024/01/14 10:29:33;;;;;;;3.70;2.30;;;;;;;4.28;73.42;99933.53;5055030;28;20151;-52
2024/01/14 10:32:00;;;;;;;2.83;2.45;;;;;;;4.31;73.43;99925.03;5050756;28;20063;-51
2024/01/14 10:34:29;;;;;;;6.40;3.42;;;;;;;4.34;73.07;99923.41;5057288;28;20051;-49
2024/01/14 10:37:00;;;;;;;5.35;2.75;;;;;;;4.37;73.82;99918.34;5053722;28;20056;-46
2024/01/14 10:39:31;;;;;;;4.10;2.42;;;;;;;4.42;73.54;99917.56;5051787;28;20056;-45
2024/01/14 10:41:59;;;;;;;7.40;2.47;;;;;;;4.45;73.08;99915.03;5056646;28;20048;-47
2024/01/14 10:44:26;;;;;;;4.50;2.58;;;;;;;4.48;73.44;99910.88;5057426;28;20045;-43
2024/01/14 10:46:53;;;;;;;2.75;2.53;;;;;;;4.50;73.66;99913.47;5050001;28;20056;-42
2024/01/14 10:49:25;;;;;;;7.65;2.83;;;;;;;4.52;72.98;99909.22;5076349;28;20068;-53
2024/01/14 10:52:01;;;;;;;5.47;1.70;;;;;;;4.51;73.07;99910.06;5051692;28;20462;-45
2024/01/14 10:57:42;;;;;;;1.15;0.93;;;;;;;4.86;73.12;99907.28;5071127;27;20766;-43
2024/01/14 11:00:10;;;;;;;2.83;1.20;;;;;;;5.05;73.36;99894.78;5064499;28;20572;-48
2024/01/14 11:02:39;;;;;;;3.53;1.20;;;;;;;5.28;72.35;99890.03;5048579;28;20064;-50
2024/01/14 11:05:08;;;;;;;2.72;0.90;;;;;;;5.53;73.24;99881.84;5050246;28;20505;-43
2024/01/14 11:07:35;;;;;;;2.28;1.08;;;;;;;5.65;71.98;99883.75;5051058;28;20604;-49
2024/01/14 11:10:04;;;;;;;3.53;1.60;;;;;;;5.86;73.43;99883.19;5042153;28;20041;-48
2024/01/14 11:15:16;;;;;;;5.50;2.25;;;;;;;6.37;70.68;99875.28;5038176;28;20409;-48
2024/01/14 11:18:09;;;;;;;2.55;1.20;;;;;;;6.21;71.12;99873.41;5025404;28;20061;-47
2024/01/14 11:20:41;;;;;;;4.70;0.95;;;;;;;6.15;71.15;99869.88;5012777;28;20046;-56
2024/01/14 11:23:33;;;;;;;2.28;1.00;;;;;;;6.03;71.49;99869.69;5012511;28;20090;-43
2024/01/14 11:26:00;;;;;;;2.47;1.10;;;;;;;5.91;70.49;99860.97;5015521;28;20679;-49
2024/01/14 11:28:28;;;;;;;1.73;0.82;;;;;;;5.80;70.75;99852.25;5015555;28;20066;-49
2024/01/14 11:30:57;;;;;;;2.70;1.15;;;;;;;5.69;71.13;99858.94;5006378;28;20053;-45
2024/01/14 11:36:10;;;;;;;4.07;1.15;;;;;;;5.45;70.32;99850.06;5011210;28;20417;-52
2024/01/14 11:44:03;;;;;;;3.00;2.03;;;;;;;5.46;72.53;99826.97;5014897;28;20409;-48
2024/01/14 11:46:47;;;;;;;3.42;1.48;;;;;;;5.60;72.86;99828.84;4992195;28;20049;-53
2024/01/14 11:49:22;;;;;;;2.97;1.27;;;;;;;5.65;72.37;99825.50;4992203;28;20132;-47
2024/01/14 11:51:59;;;;;;;2.35;1.70;;;;;;;5.80;71.71;99816.28;5006471;28;20051;-50